Time;durP1;ratioP1;P1;durP2;ratioP2;P2;SDS_P1;SDS_P2;PMS_P1;PMS_P2;Temp;Humidity;BMP_temperature;BMP_pressure;BME280_temperature;BME280_humidity;BME280_pressure;Samples;Min_cycle;Max_cycle;Signal;HPM_P1;HPM_P2
2021/08/08 00:00:16;;;;;;;10.28;8.38;;;;;;;18.08;76.64;99900.13;1732654;79;27424;-82
2021/08/08 00:02:45;;;;;;;10.45;8.23;;;;;;;18.06;76.83;99903.09;1757619;79;25803;-81
2021/08/08 00:05:13;;;;;;;8.88;7.97;;;;;;;18.02;76.91;99907.39;1680124;79;26145;-80
2021/08/08 00:07:41;;;;;;;11.53;7.80;;;;;;;18.00;76.94;99904.11;1711781;79;26205;-82
2021/08/08 00:10:12;;;;;;;8.63;7.05;;;;;;;17.99;77.02;99902.45;1746722;80;25824;-81
2021/08/08 00:12:41;;;;;;;11.20;7.60;;;;;;;17.98;77.06;99894.06;1751297;80;27615;-81
2021/08/08 00:15:12;;;;;;;8.33;7.17;;;;;;;17.97;77.09;99892.41;1667367;82;26842;-81
2021/08/08 00:17:39;;;;;;;9.93;7.62;;;;;;;17.96;77.16;99877.23;1677404;82;25839;-80
2021/08/08 00:20:08;;;;;;;11.35;7.50;;;;;;;17.95;77.19;99869.34;1716132;81;25845;-81
2021/08/08 00:22:35;;;;;;;8.18;7.37;;;;;;;17.92;77.25;99861.17;1733469;82;26543;-80
2021/08/08 00:25:05;;;;;;;12.25;8.03;;;;;;;17.91;77.39;99870.39;1740728;79;27489;-82
2021/08/08 00:27:33;;;;;;;9.65;7.97;;;;;;;17.91;77.61;99862.78;1715997;80;25403;-81
2021/08/08 00:30:00;;;;;;;10.08;7.65;;;;;;;17.89;77.61;99855.45;1769922;80;25873;-82
2021/08/08 00:32:27;;;;;;;8.90;7.92;;;;;;;17.90;77.95;99866.58;1775224;79;25793;-80
2021/08/08 00:34:55;;;;;;;9.25;7.47;;;;;;;17.90;77.89;99859.81;1716016;80;25764;-81
2021/08/08 00:37:22;;;;;;;9.48;7.60;;;;;;;17.92;78.08;99854.95;1728634;80;27549;-81
2021/08/08 00:39:49;;;;;;;8.28;7.37;;;;;;;17.93;78.10;99857.41;1747411;79;25818;-81
2021/08/08 00:42:17;;;;;;;10.03;7.70;;;;;;;17.98;78.18;99858.00;1776530;80;25797;-81
2021/08/08 00:44:44;;;;;;;15.48;7.33;;;;;;;17.99;78.31;99850.14;1708544;79;25950;-80
2021/08/08 00:47:13;;;;;;;12.07;7.85;;;;;;;18.00;78.54;99845.02;1706962;80;25912;-82
2021/08/08 00:49:41;;;;;;;10.58;7.85;;;;;;;17.99;78.73;99844.20;1728217;79;27629;-82
2021/08/08 00:52:09;;;;;;;10.80;7.70;;;;;;;17.97;78.81;99838.20;1787312;79;25949;-81
2021/08/08 00:54:37;;;;;;;8.65;7.20;;;;;;;17.96;79.12;99829.81;1716296;79;26004;-81
2021/08/08 00:57:05;;;;;;;8.90;7.58;;;;;;;17.93;79.19;99830.84;1727787;81;26235;-81
2021/08/08 00:59:33;;;;;;;12.65;8.10;;;;;;;17.91;79.47;99824.33;1745606;79;25775;-81
2021/08/08 01:02:03;;;;;;;10.43;8.70;;;;;;;17.89;79.68;99829.70;1731699;79;28250;-81
2021/08/08 01:04:36;;;;;;;8.73;7.83;;;;;;;17.84;80.28;99822.33;1732404;79;25908;-81
2021/08/08 01:07:22;;;;;;;9.15;8.20;;;;;;;17.80;80.27;99819.84;1716041;80;26499;-81
2021/08/08 01:09:53;;;;;;;8.93;8.03;;;;;;;17.77;80.72;99816.28;1707557;79;25758;-80
2021/08/08 01:12:21;;;;;;;11.35;8.30;;;;;;;17.77;80.85;99817.63;1749508;80;27283;-82
2021/08/08 01:14:51;;;;;;;9.83;8.83;;;;;;;17.76;80.96;99811.13;1730081;80;27638;-82
2021/08/08 01:17:19;;;;;;;10.72;8.73;;;;;;;17.78;81.17;99804.91;1730337;79;25931;-81
2021/08/08 01:20:00;;;;;;;11.10;8.15;;;;;;;17.79;81.24;99807.39;1781228;79;25884;-81
2021/08/08 01:22:31;;;;;;;10.93;8.40;;;;;;;17.82;81.39;99800.63;1772113;80;26469;-81
2021/08/08 01:25:02;;;;;;;10.75;7.97;;;;;;;17.84;81.53;99797.95;1719310;81;25773;-81
2021/08/08 01:27:31;;;;;;;9.83;7.85;;;;;;;17.85;81.59;99786.59;1712025;80;30709;-82
2021/08/08 01:29:59;;;;;;;9.60;8.00;;;;;;;17.89;81.62;99782.30;1745973;81;25891;-81
2021/08/08 01:32:29;;;;;;;8.68;7.62;;;;;;;17.92;81.68;99781.23;1714121;79;25889;-81
2021/08/08 01:34:56;;;;;;;8.35;7.45;;;;;;;17.95;81.64;99783.45;1692571;82;25795;-80
2021/08/08 01:37:24;;;;;;;10.08;7.65;;;;;;;17.97;81.67;99784.02;1709192;81;25818;-81
2021/08/08 01:40:01;;;;;;;9.55;7.45;;;;;;;17.99;81.73;99788.64;1738010;80;28306;-80
2021/08/08 01:42:32;;;;;;;9.98;7.20;;;;;;;18.02;81.70;99781.90;1722429;80;25822;-81
2021/08/08 01:45:02;;;;;;;9.38;8.43;;;;;;;18.02;81.72;99774.59;1740268;80;25796;-81
2021/08/08 01:47:35;;;;;;;9.43;7.75;;;;;;;18.03;81.80;99769.44;1724947;79;26213;-80
2021/08/08 01:50:05;;;;;;;9.63;8.63;;;;;;;18.04;81.86;99769.73;1775979;79;25336;-81
2021/08/08 01:52:35;;;;;;;14.90;9.78;;;;;;;18.03;81.89;99765.37;1724009;80;28313;-81
2021/08/08 01:55:03;;;;;;;8.08;7.25;;;;;;;18.05;81.97;99764.58;1716953;81;25355;-80
2021/08/08 01:57:34;;;;;;;9.28;8.15;;;;;;;18.06;82.11;99756.75;1720278;79;26637;-80
2021/08/08 02:00:08;;;;;;;8.50;7.53;;;;;;;18.07;82.07;99754.30;1765357;80;26549;-80
2021/08/08 02:02:37;;;;;;;12.20;8.03;;;;;;;18.08;82.12;99751.06;1735164;79;25925;-82
2021/08/08 02:05:06;;;;;;;10.95;7.95;;;;;;;18.09;82.21;99745.38;1716915;82;27522;-81
2021/08/08 02:07:33;;;;;;;9.63;8.58;;;;;;;18.09;82.10;99733.18;1719251;79;26142;-81
2021/08/08 02:10:00;;;;;;;9.00;7.67;;;;;;;18.12;82.27;99727.79;1780941;79;25315;-79
2021/08/08 02:12:28;;;;;;;8.88;6.80;;;;;;;18.10;82.52;99719.92;1771081;79;26416;-81
2021/08/08 02:14:55;;;;;;;9.25;7.50;;;;;;;18.09;82.54;99716.92;1707891;81;26006;-80
2021/08/08 02:17:37;;;;;;;;;;;;;;;18.08;82.48;99713.12;1712104;79;27467;-80
2021/08/08 02:20:07;;;;;;;7.65;6.85;;;;;;;18.07;82.69;99708.80;1777847;79;26095;-82
2021/08/08 02:22:35;;;;;;;7.78;6.97;;;;;;;18.08;82.90;99703.63;1712868;79;26624;-80
2021/08/08 02:25:04;;;;;;;7.60;6.80;;;;;;;18.07;82.85;99697.95;1723601;80;25730;-81
2021/08/08 02:27:33;;;;;;;8.05;6.78;;;;;;;18.08;82.87;99698.21;1736551;80;26430;-80
2021/08/08 02:30:02;;;;;;;7.80;7.00;;;;;;;18.08;82.91;99702.28;1778892;80;27533;-82
2021/08/08 02:32:30;;;;;;;7.95;6.85;;;;;;;18.09;82.79;99709.34;1706797;79;25881;-80
2021/08/08 02:34:57;;;;;;;8.25;7.37;;;;;;;18.10;82.82;99698.24;1716177;81;25312;-80
2021/08/08 02:37:25;;;;;;;11.33;7.12;;;;;;;18.10;82.78;99697.42;1741571;81;25855;-82
2021/08/08 02:39:53;;;;;;;11.65;7.35;;;;;;;18.08;82.79;99689.55;1781147;79;25838;-82
2021/08/08 02:42:20;;;;;;;7.75;6.95;;;;;;;18.07;82.79;99676.27;1690545;81;28187;-83
2021/08/08 02:44:48;;;;;;;9.70;6.92;;;;;;;18.07;83.05;99674.91;1735781;79;25929;-81
2021/08/08 02:47:15;;;;;;;9.90;7.72;;;;;;;18.05;82.86;99673.00;1773207;80;25807;-83
2021/08/08 02:49:43;;;;;;;9.23;7.33;;;;;;;18.04;82.84;99672.17;1763232;80;25572;-81
2021/08/08 02:52:10;;;;;;;7.42;6.55;;;;;;;18.03;82.99;99687.31;1735469;79;25908;-81
2021/08/08 02:54:38;;;;;;;9.03;7.12;;;;;;;18.04;83.07;99683.55;1719338;80;28132;-81
2021/08/08 02:57:05;;;;;;;9.40;7.40;;;;;;;18.03;83.09;99685.96;1762942;79;25837;-81
2021/08/08 02:59:35;;;;;;;8.70;7.08;;;;;;;18.01;83.15;99688.94;1775760;79;25778;-81
2021/08/08 03:02:02;;;;;;;10.10;7.42;;;;;;;18.01;83.38;99691.64;1728409;80;26301;-82
2021/08/08 03:04:29;;;;;;;11.45;8.15;;;;;;;18.01;83.55;99698.95;1726755;81;25817;-81
2021/08/08 03:06:58;;;;;;;7.95;7.15;;;;;;;18.00;83.78;99720.37;1788732;79;27585;-82
2021/08/08 03:09:25;;;;;;;9.03;7.03;;;;;;;17.98;83.96;99742.31;1787924;79;25850;-81
2021/08/08 03:11:52;;;;;;;7.55;5.83;;;;;;;17.97;84.10;99730.34;1738565;79;25840;-81
2021/08/08 03:14:21;;;;;;;8.43;6.90;;;;;;;17.98;84.42;99710.32;1728940;80;25834;-81
2021/08/08 03:16:49;;;;;;;11.22;7.35;;;;;;;17.96;84.47;99711.94;1770447;80;25759;-80
2021/08/08 03:19:18;;;;;;;9.18;7.15;;;;;;;17.96;84.76;99699.75;1782301;79;27512;-82
2021/08/08 03:21:45;;;;;;;8.45;7.47;;;;;;;17.96;84.87;99695.69;1716800;79;25868;-82
2021/08/08 03:24:12;;;;;;;9.60;7.70;;;;;;;17.99;84.97;99691.62;1690682;81;25553;-81
2021/08/08 03:26:40;;;;;;;9.53;8.58;;;;;;;17.99;85.15;99688.91;1745647;81;25862;-81
2021/08/08 03:29:09;;;;;;;11.00;6.97;;;;;;;17.99;85.37;99699.22;1765717;80;25299;-83
2021/08/08 03:31:37;;;;;;;7.97;7.17;;;;;;;17.99;85.40;99694.33;1692408;82;27426;-80
2021/08/08 03:34:04;;;;;;;7.58;6.83;;;;;;;17.97;85.63;99681.58;1636524;82;25976;-81
2021/08/08 03:36:32;;;;;;;8.05;7.12;;;;;;;17.92;85.89;99670.14;1723677;81;25969;-80
2021/08/08 03:38:59;;;;;;;10.28;7.00;;;;;;;17.88;86.07;99671.73;1768894;80;25817;-80
2021/08/08 03:41:26;;;;;;;9.03;7.12;;;;;;;17.85;86.26;99669.56;1647630;81;26039;-82
2021/08/08 03:43:53;;;;;;;7.97;7.17;;;;;;;17.87;86.49;99667.94;1712147;81;27683;-82
2021/08/08 03:46:20;;;;;;;7.95;7.10;;;;;;;17.89;86.64;99666.61;1764823;80;25957;-80
2021/08/08 03:48:47;;;;;;;12.05;7.95;;;;;;;17.92;86.76;99663.94;1750874;81;26515;-81
2021/08/08 03:51:15;;;;;;;8.85;7.60;;;;;;;17.92;86.79;99670.14;1727498;81;25858;-81
2021/08/08 03:53:42;;;;;;;8.78;7.67;;;;;;;17.91;86.98;99664.47;1713248;79;25849;-82
2021/08/08 03:56:09;;;;;;;8.83;7.92;;;;;;;17.93;87.27;99665.02;1741031;81;27559;-83
2021/08/08 03:58:36;;;;;;;17.82;10.50;;;;;;;17.92;87.22;99670.14;1764786;80;25745;-81
2021/08/08 04:01:04;;;;;;;8.98;8.03;;;;;;;17.92;87.51;99683.70;1729993;80;25643;-81
2021/08/08 04:03:34;;;;;;;8.55;7.60;;;;;;;17.91;87.44;99724.60;1678019;82;25945;-81
2021/08/08 04:06:01;;;;;;;13.15;8.18;;;;;;;17.89;87.84;99775.52;1752134;80;25874;-80
2021/08/08 04:08:28;;;;;;;10.30;9.10;;;;;;;17.87;88.12;99783.91;1720243;81;27437;-80
2021/08/08 04:10:55;;;;;;;10.88;8.18;;;;;;;17.87;88.13;99785.27;1709725;82;25872;-82
2021/08/08 04:13:23;;;;;;;11.40;8.55;;;;;;;17.89;88.33;99782.30;1766324;79;25907;-81
2021/08/08 04:15:51;;;;;;;9.40;7.67;;;;;;;17.89;88.31;99787.71;1781555;79;26063;-81
2021/08/08 04:18:18;;;;;;;7.85;7.00;;;;;;;17.94;88.42;99787.78;1773957;79;25791;-81
2021/08/08 04:20:45;;;;;;;9.05;7.62;;;;;;;17.99;88.65;99793.23;1759866;79;27582;-82
2021/08/08 04:23:12;;;;;;;10.58;7.47;;;;;;;18.01;88.68;99779.72;1723624;79;26106;-81
2021/08/08 04:25:40;;;;;;;7.72;6.92;;;;;;;18.02;88.80;99777.30;1767531;79;25773;-81
2021/08/08 04:28:08;;;;;;;8.25;6.90;;;;;;;18.03;88.88;99772.16;1761249;80;26098;-82
2021/08/08 04:30:36;;;;;;;9.25;7.35;;;;;;;18.02;89.02;99774.59;1753342;80;25348;-80
2021/08/08 04:33:04;;;;;;;10.13;7.22;;;;;;;18.03;88.96;99786.23;1746149;80;27106;-79
2021/08/08 04:35:32;;;;;;;9.20;7.20;;;;;;;18.05;89.10;99789.53;1754246;81;26170;-80
2021/08/08 04:38:01;;;;;;;11.12;7.75;;;;;;;18.06;89.21;99783.02;1754611;81;26668;-81
2021/08/08 04:40:28;;;;;;;10.72;8.15;;;;;;;18.06;89.49;99800.64;1676288;81;26190;-80
2021/08/08 04:42:56;;;;;;;8.95;6.87;;;;;;;18.05;89.66;99801.17;1724733;80;25784;-80
2021/08/08 04:45:24;;;;;;;7.90;7.10;;;;;;;18.01;89.66;99786.49;1723658;80;28472;-83
2021/08/08 04:47:52;;;;;;;8.00;7.05;;;;;;;17.99;89.91;99762.90;1703597;80;25928;-80
2021/08/08 04:50:20;;;;;;;7.47;6.78;;;;;;;17.98;90.12;99761.81;1751824;79;25488;-82
2021/08/08 04:52:48;;;;;;;7.47;6.78;;;;;;;17.99;90.41;99775.62;1744648;80;25761;-83
2021/08/08 04:55:16;;;;;;;9.08;7.00;;;;;;;18.02;90.57;99767.82;1721772;81;25776;-81
2021/08/08 04:57:44;;;;;;;7.37;6.67;;;;;;;18.04;90.77;99755.36;1726196;81;27495;-81
2021/08/08 05:00:16;;;;;;;8.18;6.53;;;;;;;18.07;90.77;99750.80;1733228;81;25924;-83
2021/08/08 05:02:45;;;;;;;7.78;6.70;;;;;;;18.09;90.92;99749.44;1752083;80;25944;-82
2021/08/08 05:05:13;;;;;;;8.03;6.20;;;;;;;18.14;91.02;99756.81;1743593;80;25937;-81
2021/08/08 05:07:41;;;;;;;6.95;6.25;;;;;;;18.18;91.22;99744.38;1750256;80;25725;-81
2021/08/08 05:10:11;;;;;;;7.65;5.80;;;;;;;18.19;91.12;99752.27;1722632;81;27581;-82
2021/08/08 05:12:39;;;;;;;7.57;6.00;;;;;;;18.23;91.17;99743.08;1746379;80;25973;-82
2021/08/08 05:15:07;;;;;;;9.30;6.58;;;;;;;18.26;91.25;99744.73;1764354;80;26035;-83
2021/08/08 05:17:35;;;;;;;8.53;6.55;;;;;;;18.28;91.35;99741.22;1726303;81;25833;-82
2021/08/08 05:20:06;;;;;;;7.35;6.00;;;;;;;18.32;91.38;99736.95;1703020;81;25904;-83
2021/08/08 05:22:33;;;;;;;;;;;;;;;18.36;91.53;99744.02;1754003;81;27526;-82
2021/08/08 05:25:02;;;;;;;6.92;5.80;;;;;;;18.39;91.87;99732.67;1720480;80;26588;-81
2021/08/08 05:27:29;;;;;;;9.83;6.25;;;;;;;18.41;91.80;99742.72;1718433;80;25869;-83
2021/08/08 05:29:57;;;;;;;11.05;6.50;;;;;;;18.45;91.90;99739.80;1743292;80;25951;-81
2021/08/08 05:32:24;;;;;;;7.65;6.85;;;;;;;18.50;92.01;99739.02;1774690;79;25770;-81
2021/08/08 05:34:51;;;;;;;11.10;6.53;;;;;;;18.55;92.33;99739.05;1682602;81;28000;-81
2021/08/08 05:37:19;;;;;;;13.50;6.62;;;;;;;18.59;92.25;99744.23;1675770;82;25972;-81
2021/08/08 05:39:46;;;;;;;7.75;6.25;;;;;;;18.64;92.40;99749.70;1660046;82;25430;-82
2021/08/08 05:42:13;;;;;;;6.67;5.85;;;;;;;18.69;92.42;99748.39;1747331;81;26434;-81
2021/08/08 05:44:40;;;;;;;8.75;6.40;;;;;;;18.73;92.51;99753.58;1693171;80;25962;-82
2021/08/08 05:47:09;;;;;;;6.95;6.10;;;;;;;18.79;92.68;99763.38;1706200;81;27490;-82
2021/08/08 05:49:36;;;;;;;10.38;5.95;;;;;;;18.84;92.79;99767.50;1718124;79;25821;-81
2021/08/08 05:52:06;;;;;;;8.00;6.65;;;;;;;18.90;93.00;99774.06;1742250;81;26525;-84
2021/08/08 05:54:34;;;;;;;8.08;5.95;;;;;;;18.96;93.11;99772.19;1694008;81;26073;-82
2021/08/08 05:57:01;;;;;;;7.65;6.03;;;;;;;19.01;93.13;99771.67;1724401;81;26514;-82
2021/08/08 05:59:28;;;;;;;8.53;6.20;;;;;;;19.05;92.89;99774.70;1724177;81;27461;-80
2021/08/08 06:01:56;;;;;;;7.53;5.75;;;;;;;19.10;93.06;99776.06;1757798;81;26594;-81
2021/08/08 06:04:23;;;;;;;13.38;6.78;;;;;;;19.16;93.11;99775.05;1718589;81;25972;-80
2021/08/08 06:06:52;;;;;;;11.80;7.72;;;;;;;19.20;93.12;99772.87;1726591;81;26512;-82
2021/08/08 06:09:19;;;;;;;7.75;6.20;;;;;;;19.27;93.36;99780.79;1747259;80;26013;-82
2021/08/08 06:11:48;;;;;;;9.58;6.30;;;;;;;19.34;93.22;99781.41;1756276;80;27430;-80
2021/08/08 06:14:15;;;;;;;6.60;5.95;;;;;;;19.39;93.39;99783.34;1695648;82;25792;-81
2021/08/08 06:16:42;;;;;;;7.72;5.90;;;;;;;19.43;93.31;99787.16;1714617;82;25885;-82
2021/08/08 06:19:09;;;;;;;9.28;6.33;;;;;;;19.46;93.38;99783.36;1699276;81;25810;-81
2021/08/08 06:21:39;;;;;;;7.25;6.10;;;;;;;19.50;93.40;99781.78;1747258;81;25771;-82
2021/08/08 06:24:06;;;;;;;10.48;6.62;;;;;;;19.51;93.36;99788.01;1689878;82;27382;-82
2021/08/08 06:26:35;;;;;;;9.10;5.35;;;;;;;19.50;93.23;99794.00;1691799;82;25868;-81
2021/08/08 06:29:05;;;;;;;8.63;5.75;;;;;;;19.51;93.10;99789.37;1734406;81;26272;-80
2021/08/08 06:31:32;;;;;;;7.53;5.83;;;;;;;19.54;93.35;99786.13;1755370;81;25867;-81
2021/08/08 06:34:01;;;;;;;6.85;6.03;;;;;;;19.61;93.83;99792.16;1762647;80;25877;-81
2021/08/08 06:36:29;;;;;;;7.45;5.15;;;;;;;19.66;93.55;99801.66;1704515;82;28248;-80
2021/08/08 06:39:04;;;;;;;9.00;5.90;;;;;;;19.72;93.75;99807.39;1733989;80;26478;-81
2021/08/08 06:41:29;;;;;;;8.00;5.97;;;;;;;19.78;93.82;99803.07;1737776;82;25797;-81
2021/08/08 06:43:58;;;;;;;9.55;5.75;;;;;;;19.83;93.88;99813.97;1698946;80;26361;-80
2021/08/08 06:46:25;;;;;;;8.00;5.92;;;;;;;19.83;93.36;99824.84;1690579;80;25855;-81
2021/08/08 06:48:53;;;;;;;7.87;6.42;;;;;;;19.78;93.09;99826.73;1713918;82;28321;-80
2021/08/08 06:51:20;;;;;;;8.40;7.05;;;;;;;19.74;93.26;99836.47;1748345;80;25787;-82
2021/08/08 06:53:47;;;;;;;8.25;6.95;;;;;;;19.73;93.29;99840.29;1736828;80;25845;-82
2021/08/08 06:56:15;;;;;;;9.45;6.35;;;;;;;19.71;93.62;99838.38;1683852;82;26189;-81
2021/08/08 06:58:42;;;;;;;10.98;6.30;;;;;;;19.71;94.03;99841.09;1708112;82;26047;-81
2021/08/08 07:01:09;;;;;;;8.53;7.05;;;;;;;19.70;93.91;99849.78;1716343;81;27105;-83
2021/08/08 07:03:36;;;;;;;7.72;6.53;;;;;;;19.69;94.02;99850.06;1698853;81;25886;-81
2021/08/08 07:06:03;;;;;;;8.65;7.80;;;;;;;19.66;93.78;99851.93;1717045;80;25828;-82
2021/08/08 07:08:30;;;;;;;9.18;7.55;;;;;;;19.68;93.99;99853.31;1727197;81;25819;-81
2021/08/08 07:10:58;;;;;;;9.73;7.65;;;;;;;19.70;93.97;99862.02;1738261;82;25829;-81
2021/08/08 07:13:25;;;;;;;9.25;8.28;;;;;;;19.72;93.96;99866.64;1697753;81;27518;-82
2021/08/08 07:15:52;;;;;;;10.50;7.83;;;;;;;19.72;93.64;99863.92;1707564;81;26366;-82
2021/08/08 07:18:19;;;;;;;9.55;8.08;;;;;;;19.71;93.72;99879.14;1712810;80;25884;-81
2021/08/08 07:20:46;;;;;;;10.48;8.20;;;;;;;19.66;93.23;99884.00;1721316;82;26457;-80
2021/08/08 07:23:13;;;;;;;11.00;8.58;;;;;;;19.60;93.38;99897.81;1718185;81;25779;-80
2021/08/08 07:25:40;;;;;;;12.58;10.40;;;;;;;19.55;93.42;99908.11;1697445;82;27509;-80
2021/08/08 07:28:08;;;;;;;17.98;12.00;;;;;;;19.53;93.49;99915.70;1693719;82;26062;-80
2021/08/08 07:30:35;;;;;;;12.43;11.10;;;;;;;19.50;93.96;99929.00;1717874;82;25874;-82
2021/08/08 07:33:02;;;;;;;18.60;10.82;;;;;;;19.45;92.87;99930.31;1696666;81;26605;-81
2021/08/08 07:35:29;;;;;;;12.58;10.95;;;;;;;19.42;92.46;99948.50;1705081;81;25777;-81
2021/08/08 07:37:56;;;;;;;15.35;10.28;;;;;;;19.34;92.17;99962.01;1712096;82;27542;-80
2021/08/08 07:40:24;;;;;;;12.18;10.78;;;;;;;19.24;92.43;99962.73;1727541;82;26593;-80
2021/08/08 07:42:51;;;;;;;12.82;10.63;;;;;;;19.21;92.38;99965.95;1686930;82;25882;-82
2021/08/08 07:45:20;;;;;;;13.00;10.32;;;;;;;19.15;92.63;99973.77;1686631;83;26337;-78
2021/08/08 07:47:48;;;;;;;10.15;8.53;;;;;;;19.11;92.60;99971.29;1712278;81;26006;-80
2021/08/08 07:50:15;;;;;;;10.95;8.75;;;;;;;19.04;92.49;99976.10;1730981;82;27652;-81
2021/08/08 07:52:42;;;;;;;11.65;9.08;;;;;;;18.93;92.31;99969.46;1680542;82;26203;-81
2021/08/08 07:55:11;;;;;;;10.80;8.63;;;;;;;18.86;92.28;99977.01;1688919;81;25800;-79
2021/08/08 07:57:38;;;;;;;12.33;8.03;;;;;;;18.82;92.65;99992.16;1708530;82;26359;-79
2021/08/08 08:00:08;;;;;;;8.30;7.17;;;;;;;18.75;92.92;99999.67;1706463;83;25888;-81
2021/08/08 08:02:36;;;;;;;;;;;;;;;18.71;92.76;100008.84;1715620;82;27513;-77
2021/08/08 08:05:05;;;;;;;6.87;5.87;;;;;;;18.70;93.29;100015.36;1701305;82;25361;-80
2021/08/08 08:07:32;;;;;;;8.90;5.95;;;;;;;18.70;93.49;99989.58;1706725;82;25812;-81
2021/08/08 08:09:59;;;;;;;6.33;5.15;;;;;;;18.75;92.86;100007.81;1675863;83;25944;-78
2021/08/08 08:12:26;;;;;;;5.62;4.42;;;;;;;18.82;92.67;100011.95;1686904;83;25787;-79
2021/08/08 08:14:53;;;;;;;4.80;4.00;;;;;;;18.87;92.26;100001.70;1730197;82;28331;-78
2021/08/08 08:17:20;;;;;;;4.00;3.70;;;;;;;18.92;91.90;100016.69;1720814;80;25858;-78
2021/08/08 08:19:47;;;;;;;3.67;3.37;;;;;;;18.92;91.51;100020.77;1716548;80;26547;-78
2021/08/08 08:22:17;;;;;;;3.62;3.08;;;;;;;18.93;91.38;100029.17;1689020;82;25790;-78
2021/08/08 08:24:45;;;;;;;4.22;3.35;;;;;;;18.94;90.89;100029.47;1737126;80;25841;-79
2021/08/08 08:27:12;;;;;;;3.58;3.15;;;;;;;18.98;90.69;100037.37;1759752;79;27547;-78
2021/08/08 08:29:39;;;;;;;2.35;2.08;;;;;;;19.05;90.55;100045.59;1751257;79;25935;-78
2021/08/08 08:32:07;;;;;;;2.45;1.98;;;;;;;19.11;89.70;100064.13;1715664;79;25906;-79
2021/08/08 08:34:35;;;;;;;2.37;2.00;;;;;;;19.13;88.71;100071.48;1694320;82;26469;-78
2021/08/08 08:37:02;;;;;;;2.27;1.90;;;;;;;19.17;88.98;100090.25;1731079;81;25316;-78
2021/08/08 08:39:29;;;;;;;1.70;1.60;;;;;;;19.17;88.26;100086.18;1689046;81;27472;-79
2021/08/08 08:42:00;;;;;;;1.47;1.37;;;;;;;19.17;87.59;100094.33;1709281;80;25854;-78
2021/08/08 08:44:27;;;;;;;1.70;1.60;;;;;;;19.14;87.15;100099.72;1766021;79;25746;-79
2021/08/08 08:46:58;;;;;;;2.15;1.90;;;;;;;19.14;87.54;100098.89;1710682;82;25776;-78
2021/08/08 08:49:28;;;;;;;1.42;1.32;;;;;;;19.16;87.05;100100.28;1716853;81;25854;-79
2021/08/08 08:52:04;;;;;;;4.72;1.80;;;;;;;19.17;86.35;100105.19;1676607;82;27275;-77
2021/08/08 08:54:33;;;;;;;2.20;1.90;;;;;;;19.12;86.16;100114.09;1700745;84;25918;-78
2021/08/08 08:57:02;;;;;;;3.20;2.00;;;;;;;19.13;86.43;100127.13;1720461;82;25878;-78
2021/08/08 08:59:30;;;;;;;2.17;1.98;;;;;;;19.11;86.62;100127.40;1654810;85;25843;-78
2021/08/08 09:01:57;;;;;;;4.42;1.95;;;;;;;19.11;86.82;100136.90;1690440;81;25846;-78
2021/08/08 09:04:24;;;;;;;3.10;2.62;;;;;;;19.11;86.97;100149.12;1706121;81;28168;-79
2021/08/08 09:06:51;;;;;;;1.70;1.55;;;;;;;19.07;86.79;100156.66;1743844;81;25734;-78
2021/08/08 09:09:19;;;;;;;3.10;1.87;;;;;;;19.04;87.21;100148.48;1666629;81;25943;-78
2021/08/08 09:11:47;;;;;;;3.08;2.22;;;;;;;19.06;87.42;100145.50;1669847;82;25927;-78
2021/08/08 09:14:16;;;;;;;2.25;2.05;;;;;;;19.08;87.43;100146.90;1723970;81;25819;-78
2021/08/08 09:16:50;;;;;;;4.08;2.72;;;;;;;19.15;87.43;100148.06;1742667;81;28070;-79
2021/08/08 09:19:25;;;;;;;1.90;1.80;;;;;;;19.19;87.38;100154.63;1741674;81;26274;-78
2021/08/08 09:21:55;;;;;;;2.27;2.08;;;;;;;19.30;87.96;100156.39;1686492;81;25899;-78
2021/08/08 09:24:26;;;;;;;3.42;2.45;;;;;;;19.41;87.86;100142.41;1759517;79;26315;-79
2021/08/08 09:27:03;;;;;;;3.47;2.47;;;;;;;19.46;87.52;100141.13;1783857;79;25871;-78
2021/08/08 09:29:30;;;;;;;3.80;3.40;;;;;;;19.52;87.27;100157.75;1776825;80;28170;-78
2021/08/08 09:31:58;;;;;;;5.72;2.98;;;;;;;19.56;87.30;100177.90;1704446;80;26192;-78
2021/08/08 09:34:35;;;;;;;3.98;2.40;;;;;;;19.57;86.80;100182.23;1780526;79;25904;-78
2021/08/08 09:37:09;;;;;;;2.12;1.95;;;;;;;19.58;87.15;100195.59;1770449;80;25918;-78
2021/08/08 09:39:41;;;;;;;5.97;4.05;;;;;;;19.58;86.63;100190.69;1736653;79;25911;-78
2021/08/08 09:42:15;;;;;;;3.50;2.70;;;;;;;19.60;86.89;100200.23;1713069;79;27369;-78
2021/08/08 09:45:05;;;;;;;7.67;3.27;;;;;;;19.62;86.51;100207.59;1772954;79;25711;-78
2021/08/08 09:47:47;;;;;;;3.45;2.58;;;;;;;19.66;86.51;100211.43;1758996;79;25969;-78
2021/08/08 09:50:20;;;;;;;3.55;2.60;;;;;;;19.72;86.51;100212.30;1705451;79;25815;-78
2021/08/08 09:52:55;;;;;;;4.47;2.80;;;;;;;19.83;86.89;100212.69;1719015;80;25838;-77
2021/08/08 09:55:33;;;;;;;5.05;2.35;;;;;;;19.97;86.86;100205.78;1767361;79;27455;-78
2021/08/08 09:58:02;;;;;;;6.40;3.00;;;;;;;20.13;86.69;100200.75;1749402;80;26157;-77
2021/08/08 10:00:37;;;;;;;5.75;2.50;;;;;;;20.28;85.67;100196.83;1695057;79;25811;-78
2021/08/08 10:03:06;;;;;;;4.25;3.00;;;;;;;20.34;84.60;100197.68;1737010;79;25808;-80
2021/08/08 10:05:38;;;;;;;4.20;2.42;;;;;;;20.39;84.32;100205.36;1773063;79;25907;-77
2021/08/08 10:08:14;;;;;;;5.37;3.22;;;;;;;20.45;84.01;100202.13;1772921;79;28684;-79
2021/08/08 10:10:45;;;;;;;4.40;2.95;;;;;;;20.49;83.96;100214.13;1742857;79;26446;-78
2021/08/08 10:13:36;;;;;;;7.60;3.17;;;;;;;20.54;83.88;100227.78;1695146;82;26264;-78
2021/08/08 10:16:09;;;;;;;3.35;2.65;;;;;;;20.56;83.18;100234.60;1777598;79;25777;-79
2021/08/08 10:18:39;;;;;;;;;;;;;;;20.53;83.23;100238.40;1778445;80;25798;-79
2021/08/08 10:21:08;;;;;;;3.77;2.47;;;;;;;20.51;82.89;100250.05;1743726;81;27634;-78
2021/08/08 10:23:39;;;;;;;5.58;2.95;;;;;;;20.46;82.55;100255.47;1710503;80;26075;-78
2021/08/08 10:26:07;;;;;;;;;;;;;;;20.43;82.25;100255.45;1772534;80;25790;-78
2021/08/08 10:28:34;;;;;;;2.95;2.05;;;;;;;20.45;82.30;100255.18;1681079;82;25823;-78
2021/08/08 10:31:04;;;;;;;3.70;2.42;;;;;;;20.46;82.75;100255.47;1722963;79;25910;-79
2021/08/08 10:33:42;;;;;;;5.97;2.33;;;;;;;20.49;82.38;100268.01;1775715;79;27459;-78
2021/08/08 10:36:24;;;;;;;3.52;2.20;;;;;;;20.58;82.54;100272.44;1740895;79;26665;-78
2021/08/08 10:38:54;;;;;;;3.27;2.40;;;;;;;20.67;82.73;100270.87;1759130;79;25865;-78
2021/08/08 10:41:21;;;;;;;4.62;2.67;;;;;;;20.75;81.97;100273.11;1710388;80;25833;-79
2021/08/08 10:43:48;;;;;;;4.62;2.67;;;;;;;20.77;81.59;100272.31;1757738;79;26461;-77
2021/08/08 10:46:16;;;;;;;7.33;3.17;;;;;;;20.82;81.56;100271.53;1780658;79;27588;-78
2021/08/08 10:48:44;;;;;;;5.85;3.83;;;;;;;20.88;81.08;100272.66;1684379;81;26643;-78
2021/08/08 10:51:24;;;;;;;3.95;2.30;;;;;;;20.96;80.99;100276.78;1699391;79;25910;-79
2021/08/08 10:54:08;;;;;;;3.10;2.60;;;;;;;21.05;79.99;100282.06;1752650;79;26596;-78
2021/08/08 10:56:41;;;;;;;5.58;2.60;;;;;;;21.19;81.59;100289.50;1773675;79;25811;-78
2021/08/08 10:59:20;;;;;;;2.60;2.30;;;;;;;21.38;80.54;100292.05;1717986;80;27467;-78
2021/08/08 11:02:08;;;;;;;6.25;2.52;;;;;;;21.55;80.73;100286.97;1691042;82;25950;-78
2021/08/08 11:04:36;;;;;;;2.58;2.15;;;;;;;21.67;78.76;100289.75;1771784;79;25785;-78
2021/08/08 11:07:05;;;;;;;3.42;2.12;;;;;;;21.70;77.23;100289.77;1723326;82;26558;-78
2021/08/08 11:09:38;;;;;;;3.25;1.90;;;;;;;21.67;77.37;100287.55;1686796;81;25951;-78
2021/08/08 11:12:06;;;;;;;4.42;2.37;;;;;;;21.59;77.01;100294.36;1696847;81;27701;-79
2021/08/08 11:14:33;;;;;;;4.72;3.47;;;;;;;21.51;77.32;100291.58;1725666;79;26201;-78
2021/08/08 11:17:06;;;;;;;6.65;3.80;;;;;;;21.47;77.93;100295.92;1754940;79;25784;-78
2021/08/08 11:19:40;;;;;;;4.47;3.08;;;;;;;21.49;77.65;100291.02;1700946;79;25787;-78
2021/08/08 11:22:20;;;;;;;3.37;2.45;;;;;;;21.56;77.00;100300.86;1714925;81;25826;-78
2021/08/08 11:25:00;;;;;;;3.25;2.05;;;;;;;21.66;77.11;100299.56;1751795;79;27434;-79
2021/08/08 11:27:37;;;;;;;4.33;2.98;;;;;;;21.75;75.93;100306.16;1766630;79;25898;-78
2021/08/08 11:30:09;;;;;;;3.60;2.55;;;;;;;21.84;76.25;100313.56;1717081;79;25877;-79
2021/08/08 11:32:37;;;;;;;3.50;2.58;;;;;;;21.89;74.92;100317.69;1727021;80;25838;-79
2021/08/08 11:35:09;;;;;;;7.37;3.20;;;;;;;21.94;74.53;100324.50;1766498;80;25976;-79
2021/08/08 11:37:47;;;;;;;3.30;2.55;;;;;;;22.06;75.44;100319.64;1730148;81;28581;-78